Terminal Aerodrome Forecast
Issued by NWS Paducah, KY

Home | Current Version | Previous Version | Text Only | Print | Product List | Glossary On
Versions: 1 2 3 4 5 6 7 8 9 10 11 12 13 14 15 16 17 18
000
FTUS43 KPAH 270100 AAA
TAFPAH
TAF AMD
KPAH 270152Z 2702/2724 29009KT 6SM -RASN BR OVC015
     FM270600 30007KT 6SM BR OVC020
     FM271500 33010KT P6SM BKN020
     FM271800 33009KT P6SM SCT020=

USA.gov is the U.S. government's official web portal to all federal, state and local government web resources and services.